Time,TemperatureF,DewpointF,PressureIn,WindDirection,WindDirectionDegrees,WindSpeedMPH,WindSpeedGustMPH,Humidity,HourlyPrecipIn,Conditions,Clouds,dailyrainin,SoftwareType,DateUTC
2013-07-24 00:01:00,68.7,68.2,29.57,SE,125,0.0,0.0,98,0.00,,,0.00,meteohub,2013-07-24 04:01:00,
2013-07-24 00:02:00,68.7,68.2,29.57,SE,125,0.0,0.0,98,0.00,,,0.00,meteohub,2013-07-24 04:02:00,
2013-07-24 00:04:00,68.9,68.4,29.57,SE,126,0.0,0.0,98,0.00,,,0.00,meteohub,2013-07-24 04:04:00,
2013-07-24 00:05:00,68.9,68.4,29.57,SE,125,0.0,0.0,98,0.00,,,0.00,meteohub,2013-07-24 04:05:00,
2013-07-24 00:10:00,68.7,68.2,29.57,SE,125,0.0,0.0,98,0.00,,,0.00,meteohub,2013-07-24 04:10:00,
2013-07-24 00:15:00,68.5,68.0,29.57,SE,126,0.0,0.0,98,0.00,,,0.00,meteohub,2013-07-24 04:15:00,
2013-07-24 00:20:00,68.5,68.0,29.58,SE,126,0.0,0.0,98,0.00,,,0.00,meteohub,2013-07-24 04:20:00,
2013-07-24 00:25:00,68.5,68.0,29.57,SE,126,0.0,0.0,98,0.00,,,0.00,meteohub,2013-07-24 04:25:00,
2013-07-24 00:30:00,68.4,67.8,29.57,SE,125,0.0,0.0,98,0.00,,,0.00,meteohub,2013-07-24 04:30:00,
2013-07-24 00:35:00,68.4,67.8,29.57,SE,125,0.0,0.0,98,0.00,,,0.00,meteohub,2013-07-24 04:35:00,
2013-07-24 00:40:00,68.2,67.6,29.58,SE,125,0.0,0.0,98,0.00,,,0.00,meteohub,2013-07-24 04:40:00,
2013-07-24 00:45:00,68.2,67.6,29.58,SE,126,0.0,0.0,98,0.00,,,0.00,meteohub,2013-07-24 04:45:00,
2013-07-24 00:50:00,68.2,67.6,29.58,SE,126,0.0,0.0,98,0.00,,,0.00,meteohub,2013-07-24 04:50:00,
2013-07-24 00:55:00,68.2,67.6,29.58,SE,125,0.0,0.0,98,0.00,,,0.00,meteohub,2013-07-24 04:55:00,
2013-07-24 01:00:00,68.0,67.5,29.58,SE,126,0.0,0.0,98,0.00,,,0.00,meteohub,2013-07-24 05:00:00,
2013-07-24 01:05:00,68.0,67.6,29.58,SE,126,0.0,0.0,99,0.00,,,0.00,meteohub,2013-07-24 05:05:00,
2013-07-24 01:11:00,67.8,67.3,29.58,SE,125,0.0,0.0,98,0.00,,,0.00,meteohub,2013-07-24 05:11:00,
2013-07-24 01:16:00,67.8,67.5,29.58,SE,126,0.0,0.0,99,0.00,,,0.00,meteohub,2013-07-24 05:16:00,
2013-07-24 01:21:00,67.8,67.5,29.58,SE,126,0.0,0.0,99,0.00,,,0.00,meteohub,2013-07-24 05:21:00,
2013-07-24 01:26:00,67.6,67.1,29.58,SE,126,0.0,0.0,98,0.00,,,0.00,meteohub,2013-07-24 05:26:00,
2013-07-24 01:31:00,67.6,67.1,29.58,SE,126,0.0,0.0,98,0.00,,,0.00,meteohub,2013-07-24 05:31:00,
2013-07-24 01:36:00,67.6,67.3,29.58,SE,125,0.0,0.0,99,0.00,,,0.00,meteohub,2013-07-24 05:36:00,
2013-07-24 01:41:00,67.6,67.3,29.57,SE,126,0.0,0.0,99,0.00,,,0.00,meteohub,2013-07-24 05:41:00,
2013-07-24 01:46:00,67.5,67.1,29.58,SE,126,0.0,0.0,99,0.00,,,0.00,meteohub,2013-07-24 05:46:00,
2013-07-24 01:51:00,67.6,67.3,29.58,SE,125,0.0,0.0,99,0.00,,,0.00,meteohub,2013-07-24 05:51:00,
2013-07-24 01:56:00,67.6,67.3,29.57,ESE,118,0.0,1.0,99,0.00,,,0.00,meteohub,2013-07-24 05:56:00,
2013-07-24 02:01:00,67.6,67.3,29.57,ESE,119,0.0,1.0,99,0.00,,,0.00,meteohub,2013-07-24 06:01:00,
2013-07-24 02:06:00,67.6,67.3,29.57,ESE,119,0.0,1.0,99,0.00,,,0.00,meteohub,2013-07-24 06:06:00,
2013-07-24 02:11:00,67.5,67.1,29.57,ESE,119,0.0,0.0,99,0.00,,,0.00,meteohub,2013-07-24 06:11:00,
2013-07-24 02:17:00,67.3,66.9,29.57,ESE,118,0.0,1.0,99,0.00,,,0.00,meteohub,2013-07-24 06:17:00,
2013-07-24 02:22:00,67.1,66.7,29.57,ESE,119,0.0,1.0,99,0.00,,,0.00,meteohub,2013-07-24 06:22:00,
2013-07-24 02:27:00,67.1,66.7,29.57,ESE,119,0.0,1.0,99,0.00,,,0.00,meteohub,2013-07-24 06:27:00,
2013-07-24 02:32:00,66.9,66.6,29.57,ESE,118,0.0,0.0,99,0.00,,,0.00,meteohub,2013-07-24 06:32:00,
2013-07-24 02:37:00,66.9,66.6,29.56,ESE,119,0.0,0.0,99,0.00,,,0.00,meteohub,2013-07-24 06:37:00,
2013-07-24 02:42:00,66.9,66.6,29.57,ESE,118,0.0,0.0,99,0.00,,,0.00,meteohub,2013-07-24 06:42:00,
2013-07-24 02:47:00,66.9,66.6,29.57,ESE,119,0.0,0.0,99,0.00,,,0.00,meteohub,2013-07-24 06:47:00,
2013-07-24 02:52:00,66.9,66.6,29.57,ESE,118,0.0,0.0,99,0.00,,,0.00,meteohub,2013-07-24 06:52:00,
2013-07-24 02:57:00,66.7,66.4,29.57,ESE,118,0.0,0.0,99,0.00,,,0.00,meteohub,2013-07-24 06:57:00,
2013-07-24 03:02:00,66.7,66.4,29.57,ESE,118,0.0,0.0,99,0.00,,,0.00,meteohub,2013-07-24 07:02:00,
2013-07-24 03:07:00,66.6,66.2,29.57,ESE,118,0.0,0.0,99,0.00,,,0.00,meteohub,2013-07-24 07:07:00,
2013-07-24 03:12:00,66.4,66.0,29.57,ESE,119,0.0,0.0,99,0.00,,,0.00,meteohub,2013-07-24 07:12:00,
2013-07-24 03:17:00,66.4,66.0,29.57,ESE,118,0.0,0.0,99,0.00,,,0.00,meteohub,2013-07-24 07:17:00,
2013-07-24 03:22:00,66.2,65.8,29.57,ESE,118,0.0,0.0,99,0.00,,,0.00,meteohub,2013-07-24 07:22:00,
2013-07-24 03:27:00,66.0,65.7,29.57,ESE,118,0.0,0.0,99,0.00,,,0.00,meteohub,2013-07-24 07:27:00,
2013-07-24 03:32:00,66.0,65.7,29.57,ESE,119,0.0,0.0,99,0.00,,,0.00,meteohub,2013-07-24 07:32:00,
2013-07-24 03:37:00,66.0,65.7,29.57,ESE,118,0.0,0.0,99,0.00,,,0.00,meteohub,2013-07-24 07:37:00,
2013-07-24 03:42:00,66.0,65.7,29.57,ESE,119,0.0,0.0,99,0.00,,,0.00,meteohub,2013-07-24 07:42:00,
2013-07-24 03:47:00,66.0,65.7,29.56,ESE,118,0.0,0.0,99,0.00,,,0.00,meteohub,2013-07-24 07:47:00,
2013-07-24 03:52:00,66.0,65.7,29.57,ESE,118,0.0,0.0,99,0.00,,,0.00,meteohub,2013-07-24 07:52:00,
2013-07-24 03:57:00,65.8,65.5,29.57,ESE,118,0.0,0.0,99,0.00,,,0.00,meteohub,2013-07-24 07:57:00,
2013-07-24 04:02:00,66.0,65.7,29.57,ESE,118,0.0,0.0,99,0.00,,,0.00,meteohub,2013-07-24 08:02:00,
2013-07-24 04:07:00,66.0,65.7,29.57,ESE,118,0.0,0.0,99,0.00,,,0.00,meteohub,2013-07-24 08:07:00,
2013-07-24 04:12:00,66.0,65.7,29.56,ESE,118,0.0,0.0,99,0.00,,,0.00,meteohub,2013-07-24 08:12:00,
2013-07-24 04:17:00,66.0,65.7,29.56,ESE,118,0.0,0.0,99,0.00,,,0.00,meteohub,2013-07-24 08:17:00,
2013-07-24 04:22:00,65.7,65.3,29.56,ESE,118,0.0,0.0,99,0.00,,,0.00,meteohub,2013-07-24 08:22:00,
2013-07-24 04:27:00,65.7,65.3,29.56,ESE,119,0.0,0.0,99,0.00,,,0.00,meteohub,2013-07-24 08:27:00,
2013-07-24 04:32:00,65.7,65.3,29.56,ESE,119,0.0,0.0,99,0.00,,,0.00,meteohub,2013-07-24 08:32:00,
2013-07-24 04:37:00,65.5,65.1,29.57,ESE,118,0.0,0.0,99,0.00,,,0.00,meteohub,2013-07-24 08:37:00,
2013-07-24 04:42:00,65.5,65.1,29.57,ESE,119,0.0,0.0,99,0.00,,,0.00,meteohub,2013-07-24 08:42:00,
2013-07-24 04:47:00,65.5,65.1,29.58,ESE,119,0.0,0.0,99,0.00,,,0.00,meteohub,2013-07-24 08:47:00,
2013-07-24 04:53:00,65.5,65.1,29.58,ESE,119,0.0,0.0,99,0.00,,,0.00,meteohub,2013-07-24 08:53:00,
2013-07-24 04:58:00,65.5,65.1,29.58,ESE,118,0.0,0.0,99,0.00,,,0.00,meteohub,2013-07-24 08:58:00,
2013-07-24 05:03:00,65.5,65.1,29.58,ESE,118,0.0,0.0,99,0.00,,,0.00,meteohub,2013-07-24 09:03:00,
2013-07-24 05:08:00,65.5,65.1,29.58,ESE,118,0.0,0.0,99,0.00,,,0.00,meteohub,2013-07-24 09:08:00,
2013-07-24 05:14:00,65.5,65.1,29.58,ESE,119,0.0,0.0,99,0.00,,,0.00,meteohub,2013-07-24 09:14:00,
2013-07-24 05:19:00,65.5,65.1,29.58,ESE,118,0.0,0.0,99,0.00,,,0.00,meteohub,2013-07-24 09:19:00,
2013-07-24 05:24:00,65.5,65.1,29.59,ESE,118,0.0,0.0,99,0.00,,,0.00,meteohub,2013-07-24 09:24:00,
2013-07-24 05:29:00,65.3,64.9,29.59,ESE,117,0.0,0.0,99,0.00,,,0.00,meteohub,2013-07-24 09:29:00,
2013-07-24 05:35:00,65.1,64.8,29.58,ESE,117,0.0,0.0,99,0.01,,,0.01,meteohub,2013-07-24 09:35:00,
2013-07-24 05:40:00,64.9,64.6,29.59,ESE,117,0.0,0.0,99,0.01,,,0.01,meteohub,2013-07-24 09:40:00,
2013-07-24 05:45:00,64.9,64.6,29.59,ESE,117,0.0,0.0,99,0.01,,,0.01,meteohub,2013-07-24 09:45:00,
2013-07-24 05:50:00,65.1,64.8,29.59,ESE,117,0.0,0.0,99,0.01,,,0.01,meteohub,2013-07-24 09:50:00,
2013-07-24 05:56:00,65.1,64.8,29.59,ESE,117,0.0,0.0,99,0.01,,,0.01,meteohub,2013-07-24 09:56:00,
2013-07-24 06:01:00,64.9,64.6,29.60,ESE,117,0.0,0.0,99,0.01,,,0.01,meteohub,2013-07-24 10:01:00,
2013-07-24 06:06:00,64.9,64.6,29.60,ESE,117,0.0,0.0,99,0.01,,,0.01,meteohub,2013-07-24 10:06:00,
2013-07-24 06:12:00,64.9,64.6,29.60,ESE,117,0.0,0.0,99,0.01,,,0.01,meteohub,2013-07-24 10:12:00,
2013-07-24 06:17:00,64.8,64.4,29.60,ESE,117,0.0,0.0,99,0.01,,,0.01,meteohub,2013-07-24 10:17:00,
2013-07-24 06:22:00,64.8,64.4,29.60,ESE,117,0.0,0.0,99,0.01,,,0.01,meteohub,2013-07-24 10:22:00,
2013-07-24 06:27:00,64.8,64.4,29.60,ESE,117,0.0,0.0,99,0.00,,,0.01,meteohub,2013-07-24 10:27:00,
2013-07-24 06:32:00,64.8,64.4,29.60,ESE,117,0.0,0.0,99,0.00,,,0.01,meteohub,2013-07-24 10:32:00,
2013-07-24 06:37:00,65.1,64.8,29.61,ESE,117,0.0,1.0,99,0.00,,,0.01,meteohub,2013-07-24 10:37:00,
2013-07-24 06:42:00,65.7,65.3,29.60,ESE,117,0.0,1.0,99,0.00,,,0.01,meteohub,2013-07-24 10:42:00,
2013-07-24 06:47:00,66.0,65.7,29.61,ESE,117,0.0,1.0,99,0.00,,,0.01,meteohub,2013-07-24 10:47:00,
2013-07-24 06:52:00,66.6,66.2,29.61,ESE,117,0.0,1.0,99,0.00,,,0.01,meteohub,2013-07-24 10:52:00,
2013-07-24 06:57:00,68.0,67.6,29.61,ESE,117,0.0,0.0,99,0.00,,,0.01,meteohub,2013-07-24 10:57:00,
2013-07-24 07:02:00,67.8,67.5,29.62,ESE,117,0.0,0.0,99,0.00,,,0.01,meteohub,2013-07-24 11:02:00,
2013-07-24 07:07:00,68.4,68.0,29.62,ESE,117,0.0,0.0,99,0.00,,,0.01,meteohub,2013-07-24 11:07:00,
2013-07-24 07:12:00,69.1,68.5,29.62,ESE,117,0.0,0.0,98,0.00,,,0.01,meteohub,2013-07-24 11:12:00,
2013-07-24 07:17:00,69.1,68.5,29.62,ESE,117,0.0,0.0,98,0.00,,,0.01,meteohub,2013-07-24 11:17:00,
2013-07-24 07:22:00,69.4,68.9,29.62,ESE,117,0.0,1.0,98,0.00,,,0.01,meteohub,2013-07-24 11:22:00,
2013-07-24 07:27:00,70.0,69.4,29.62,ESE,117,0.0,1.0,98,0.00,,,0.01,meteohub,2013-07-24 11:27:00,
2013-07-24 07:32:00,71.4,71.1,29.62,ESE,117,0.0,1.0,99,0.00,,,0.01,meteohub,2013-07-24 11:32:00,
2013-07-24 07:37:00,72.0,71.4,29.62,ESE,117,0.0,0.0,98,0.00,,,0.01,meteohub,2013-07-24 11:37:00,
2013-07-24 07:42:00,72.3,71.1,29.62,ESE,117,0.0,0.0,96,0.00,,,0.01,meteohub,2013-07-24 11:42:00,
2013-07-24 07:47:00,72.1,70.7,29.62,SE,134,0.0,0.0,95,0.00,,,0.01,meteohub,2013-07-24 11:47:00,
2013-07-24 07:52:00,72.1,70.7,29.63,SE,134,0.0,1.0,95,0.00,,,0.01,meteohub,2013-07-24 11:52:00,
2013-07-24 07:57:00,72.1,70.0,29.63,SE,141,0.0,1.0,93,0.00,,,0.01,meteohub,2013-07-24 11:57:00,
2013-07-24 08:02:00,72.1,69.6,29.63,South,172,0.0,1.0,92,0.00,,,0.01,meteohub,2013-07-24 12:02:00,
2013-07-24 08:07:00,72.7,70.5,29.63,South,172,0.0,1.0,93,0.00,,,0.01,meteohub,2013-07-24 12:07:00,
2013-07-24 08:12:00,73.4,70.9,29.63,South,172,0.0,1.0,92,0.00,,,0.01,meteohub,2013-07-24 12:12:00,
2013-07-24 08:17:00,74.1,71.1,29.64,South,170,0.0,1.0,90,0.00,,,0.01,meteohub,2013-07-24 12:17:00,
2013-07-24 08:23:00,74.8,70.7,29.64,SSE,148,0.0,1.0,87,0.00,,,0.01,meteohub,2013-07-24 12:23:00,
2013-07-24 08:28:00,74.8,70.0,29.64,SW,224,0.0,2.0,85,0.00,,,0.01,meteohub,2013-07-24 12:28:00,
2013-07-24 08:33:00,75.4,70.5,29.64,SSE,163,0.0,3.0,85,0.00,,,0.01,meteohub,2013-07-24 12:33:00,
2013-07-24 08:38:00,75.6,69.6,29.64,SE,125,1.0,3.0,82,0.00,,,0.01,meteohub,2013-07-24 12:38:00,
2013-07-24 08:43:00,75.9,69.6,29.64,South,189,0.0,3.0,81,0.00,,,0.01,meteohub,2013-07-24 12:43:00,
2013-07-24 08:48:00,76.3,69.6,29.64,WSW,250,0.0,3.0,80,0.00,,,0.01,meteohub,2013-07-24 12:48:00,
2013-07-24 08:54:00,76.5,70.2,29.64,WSW,249,2.0,3.0,81,0.00,,,0.01,meteohub,2013-07-24 12:54:00,
2013-07-24 08:59:00,76.3,68.9,29.64,West,276,0.0,2.0,78,0.00,,,0.01,meteohub,2013-07-24 12:59:00,
2013-07-24 09:04:00,76.3,69.6,29.65,SSW,200,0.0,3.0,80,0.00,,,0.01,meteohub,2013-07-24 13:04:00,
2013-07-24 09:09:00,75.9,68.5,29.65,SSW,211,0.0,3.0,78,0.00,,,0.01,meteohub,2013-07-24 13:09:00,
2013-07-24 09:14:00,76.3,70.0,29.66,SW,231,0.0,3.0,81,0.00,,,0.01,meteohub,2013-07-24 13:14:00,
2013-07-24 09:19:00,76.5,70.2,29.65,WSW,249,1.0,3.0,81,0.00,,,0.01,meteohub,2013-07-24 13:19:00,
2013-07-24 09:24:00,76.1,69.4,29.66,West,273,0.0,3.0,80,0.00,,,0.01,meteohub,2013-07-24 13:24:00,
2013-07-24 09:30:00,75.9,69.3,29.66,WSW,257,0.0,4.0,80,0.00,,,0.01,meteohub,2013-07-24 13:30:00,
2013-07-24 09:35:00,75.9,69.3,29.66,WSW,246,0.0,4.0,80,0.00,,,0.01,meteohub,2013-07-24 13:35:00,
2013-07-24 09:40:00,76.3,70.0,29.66,SSE,151,2.0,2.0,81,0.00,,,0.01,meteohub,2013-07-24 13:40:00,
2013-07-24 09:45:00,76.5,71.2,29.66,ESE,103,1.0,3.0,84,0.00,,,0.01,meteohub,2013-07-24 13:45:00,
2013-07-24 09:50:00,76.6,70.0,29.66,WSW,239,0.0,3.0,80,0.00,,,0.01,meteohub,2013-07-24 13:50:00,
2013-07-24 09:55:00,76.6,69.6,29.66,SW,231,2.0,3.0,79,0.00,,,0.01,meteohub,2013-07-24 13:55:00,
2013-07-24 10:00:00,76.5,69.4,29.66,WNW,290,0.0,3.0,79,0.00,,,0.01,meteohub,2013-07-24 14:00:00,
2013-07-24 10:05:00,76.6,69.6,29.67,West,259,1.0,3.0,79,0.00,,,0.01,meteohub,2013-07-24 14:05:00,
2013-07-24 10:10:00,76.8,69.8,29.67,West,276,0.0,4.0,79,0.00,,,0.01,meteohub,2013-07-24 14:10:00,
2013-07-24 10:16:00,77.4,70.3,29.68,WNW,286,0.0,4.0,79,0.00,,,0.01,meteohub,2013-07-24 14:16:00,
2013-07-24 10:21:00,77.2,69.4,29.68,West,260,0.0,4.0,77,0.00,,,0.01,meteohub,2013-07-24 14:21:00,
2013-07-24 10:26:00,77.2,69.4,29.68,SSE,167,0.0,6.0,77,0.00,,,0.01,meteohub,2013-07-24 14:26:00,
2013-07-24 10:31:00,77.0,69.6,29.68,ESE,117,1.0,6.0,78,0.00,,,0.01,meteohub,2013-07-24 14:31:00,
2013-07-24 10:36:00,77.2,70.2,29.68,South,173,3.0,6.0,79,0.00,,,0.01,meteohub,2013-07-24 14:36:00,
2013-07-24 10:41:00,77.2,70.5,29.68,ESE,117,0.0,5.0,80,0.00,,,0.01,meteohub,2013-07-24 14:41:00,
2013-07-24 10:47:00,77.4,70.0,29.68,WNW,297,1.0,5.0,78,0.00,,,0.01,meteohub,2013-07-24 14:47:00,
2013-07-24 10:52:00,77.4,70.0,29.68,SE,127,0.0,5.0,78,0.00,,,0.01,meteohub,2013-07-24 14:52:00,
2013-07-24 10:57:00,77.9,71.2,29.68,South,190,1.0,3.0,80,0.00,,,0.01,meteohub,2013-07-24 14:57:00,
2013-07-24 11:02:00,78.3,70.9,29.68,WNW,297,0.0,4.0,78,0.00,,,0.01,meteohub,2013-07-24 15:02:00,
2013-07-24 11:07:00,78.3,70.9,29.68,WSW,243,0.0,4.0,78,0.00,,,0.01,meteohub,2013-07-24 15:07:00,
2013-07-24 11:12:00,78.4,71.1,29.68,WSW,248,4.0,4.0,78,0.00,,,0.01,meteohub,2013-07-24 15:12:00,
2013-07-24 11:17:00,77.7,70.0,29.69,WSW,249,2.0,4.0,77,0.00,,,0.01,meteohub,2013-07-24 15:17:00,
2013-07-24 11:22:00,77.5,70.2,29.69,West,276,0.0,6.0,78,0.00,,,0.01,meteohub,2013-07-24 15:22:00,
2013-07-24 11:27:00,77.0,69.3,29.69,WNW,290,0.0,6.0,77,0.00,,,0.01,meteohub,2013-07-24 15:27:00,
2013-07-24 11:32:00,76.6,68.9,29.69,SSE,158,0.0,6.0,77,0.00,,,0.01,meteohub,2013-07-24 15:32:00,
2013-07-24 11:37:00,76.5,68.4,29.70,SE,134,3.0,6.0,76,0.00,,,0.01,meteohub,2013-07-24 15:37:00,
2013-07-24 11:42:00,76.6,68.9,29.70,NW,326,1.0,6.0,77,0.00,,,0.01,meteohub,2013-07-24 15:42:00,
2013-07-24 11:47:00,76.6,68.9,29.70,SW,231,1.0,6.0,77,0.00,,,0.01,meteohub,2013-07-24 15:47:00,
2013-07-24 11:52:00,76.6,68.9,29.70,SSE,148,4.0,11.0,77,0.00,,,0.01,meteohub,2013-07-24 15:52:00,
2013-07-24 11:57:00,76.8,69.1,29.70,WSW,246,1.0,11.0,77,0.00,,,0.01,meteohub,2013-07-24 15:57:00,
2013-07-24 12:02:00,77.4,69.6,29.70,East,89,2.0,11.0,77,0.00,,,0.01,meteohub,2013-07-24 16:02:00,
2013-07-24 12:07:00,77.9,68.9,29.71,SE,129,1.0,4.0,74,0.00,,,0.01,meteohub,2013-07-24 16:07:00,
2013-07-24 12:12:00,78.3,69.3,29.70,SE,131,0.0,4.0,74,0.00,,,0.01,meteohub,2013-07-24 16:12:00,
2013-07-24 12:17:00,79.0,69.3,29.70,WNW,300,1.0,4.0,72,0.00,,,0.01,meteohub,2013-07-24 16:17:00,
2013-07-24 12:22:00,79.2,68.2,29.71,SE,135,1.0,4.0,69,0.00,,,0.01,meteohub,2013-07-24 16:22:00,
2013-07-24 12:27:00,79.0,68.4,29.71,SW,232,2.0,5.0,70,0.00,,,0.01,meteohub,2013-07-24 16:27:00,
2013-07-24 12:32:00,79.0,70.0,29.71,SSW,212,1.0,5.0,74,0.00,,,0.01,meteohub,2013-07-24 16:32:00,
2013-07-24 12:37:00,78.8,68.5,29.71,WSW,248,1.0,5.0,71,0.00,,,0.01,meteohub,2013-07-24 16:37:00,
2013-07-24 12:42:00,78.6,68.0,29.71,SE,138,3.0,4.0,70,0.00,,,0.01,meteohub,2013-07-24 16:42:00,
2013-07-24 12:47:00,78.1,68.7,29.71,West,274,1.0,7.0,73,0.00,,,0.01,meteohub,2013-07-24 16:47:00,
2013-07-24 12:52:00,77.7,68.4,29.71,WSW,250,3.0,7.0,73,0.00,,,0.01,meteohub,2013-07-24 16:52:00,
2013-07-24 12:57:00,77.5,68.9,29.71,SW,220,1.0,7.0,75,0.00,,,0.01,meteohub,2013-07-24 16:57:00,
2013-07-24 13:02:00,77.4,69.3,29.71,WNW,283,1.0,4.0,76,0.00,,,0.01,meteohub,2013-07-24 17:02:00,
2013-07-24 13:07:00,77.2,68.2,29.71,WNW,284,1.0,4.0,74,0.00,,,0.01,meteohub,2013-07-24 17:07:00,
2013-07-24 13:12:00,77.0,68.0,29.71,SSW,204,0.0,4.0,74,0.00,,,0.01,meteohub,2013-07-24 17:12:00,
2013-07-24 13:17:00,77.0,68.5,29.72,NW,319,1.0,2.0,75,0.00,,,0.01,meteohub,2013-07-24 17:17:00,
2013-07-24 13:22:00,76.6,67.3,29.71,SE,139,1.0,2.0,73,0.00,,,0.01,meteohub,2013-07-24 17:22:00,
2013-07-24 13:28:00,76.3,66.9,29.71,West,264,2.0,4.0,73,0.00,,,0.01,meteohub,2013-07-24 17:28:00,
2013-07-24 13:33:00,75.9,67.1,29.71,South,179,0.0,4.0,74,0.00,,,0.01,meteohub,2013-07-24 17:33:00,
2013-07-24 13:38:00,76.1,67.3,29.72,SE,131,1.0,5.0,74,0.00,,,0.01,meteohub,2013-07-24 17:38:00,
2013-07-24 13:43:00,76.5,67.6,29.71,SW,224,0.0,5.0,74,0.00,,,0.01,meteohub,2013-07-24 17:43:00,
2013-07-24 13:48:00,77.2,67.5,29.72,SW,225,2.0,4.0,72,0.00,,,0.01,meteohub,2013-07-24 17:48:00,
2013-07-24 13:53:00,78.1,68.7,29.72,South,181,2.0,3.0,73,0.00,,,0.01,meteohub,2013-07-24 17:53:00,
2013-07-24 13:58:00,78.3,67.6,29.72,ESE,121,1.0,4.0,70,0.00,,,0.01,meteohub,2013-07-24 17:58:00,
2013-07-24 14:04:00,77.7,67.6,29.72,SSW,205,1.0,4.0,71,0.00,,,0.01,meteohub,2013-07-24 18:04:00,
2013-07-24 14:09:00,77.4,66.4,29.72,ENE,66,1.0,5.0,69,0.00,,,0.01,meteohub,2013-07-24 18:09:00,
2013-07-24 14:14:00,77.2,67.1,29.72,West,267,1.0,5.0,71,0.00,,,0.01,meteohub,2013-07-24 18:14:00,
2013-07-24 14:20:00,77.2,67.8,29.72,ESE,117,0.0,4.0,73,0.00,,,0.01,meteohub,2013-07-24 18:20:00,
2013-07-24 14:25:00,77.5,66.9,29.72,WSW,253,0.0,4.0,70,0.00,,,0.01,meteohub,2013-07-24 18:25:00,
2013-07-24 14:30:00,77.9,66.9,29.72,West,260,1.0,4.0,69,0.00,,,0.01,meteohub,2013-07-24 18:30:00,
2013-07-24 14:35:00,77.7,66.4,29.72,East,79,1.0,4.0,68,0.00,,,0.01,meteohub,2013-07-24 18:35:00,
2013-07-24 14:40:00,77.5,66.9,29.72,SSE,162,1.0,5.0,70,0.00,,,0.01,meteohub,2013-07-24 18:40:00,
2013-07-24 14:46:00,77.5,67.5,29.72,WNW,301,2.0,5.0,71,0.00,,,0.01,meteohub,2013-07-24 18:46:00,
2013-07-24 14:51:00,77.7,68.4,29.73,SW,217,1.0,5.0,73,0.00,,,0.01,meteohub,2013-07-24 18:51:00,
2013-07-24 14:57:00,78.4,68.7,29.73,SE,127,2.0,5.0,72,0.00,,,0.01,meteohub,2013-07-24 18:57:00,
2013-07-24 15:02:00,79.2,68.2,29.72,SE,129,1.0,5.0,69,0.00,,,0.01,meteohub,2013-07-24 19:02:00,
2013-07-24 15:07:00,79.5,68.5,29.72,SW,217,1.0,4.0,69,0.00,,,0.01,meteohub,2013-07-24 19:07:00,
2013-07-24 15:12:00,79.5,68.0,29.72,WNW,288,1.0,5.0,68,0.00,,,0.01,meteohub,2013-07-24 19:12:00,
2013-07-24 15:17:00,79.9,68.4,29.72,NW,312,2.0,5.0,68,0.00,,,0.01,meteohub,2013-07-24 19:17:00,
2013-07-24 15:22:00,79.5,67.6,29.72,West,259,1.0,5.0,67,0.00,,,0.01,meteohub,2013-07-24 19:22:00,
2013-07-24 15:27:00,79.7,68.5,29.72,West,259,1.0,4.0,69,0.00,,,0.01,meteohub,2013-07-24 19:27:00,
2013-07-24 15:32:00,79.5,68.0,29.72,West,278,1.0,4.0,68,0.00,,,0.01,meteohub,2013-07-24 19:32:00,
2013-07-24 15:37:00,79.2,66.7,29.72,WSW,252,1.0,2.0,66,0.00,,,0.01,meteohub,2013-07-24 19:37:00,
2013-07-24 15:43:00,79.2,68.2,29.72,SSW,195,0.0,2.0,69,0.00,,,0.01,meteohub,2013-07-24 19:43:00,
2013-07-24 15:48:00,79.3,67.5,29.72,ENE,66,1.0,2.0,67,0.00,,,0.01,meteohub,2013-07-24 19:48:00,
2013-07-24 15:53:00,79.0,66.2,29.72,West,280,2.0,3.0,65,0.00,,,0.01,meteohub,2013-07-24 19:53:00,
2013-07-24 15:58:00,79.3,68.7,29.72,WSW,256,1.0,3.0,70,0.00,,,0.01,meteohub,2013-07-24 19:58:00,
2013-07-24 16:04:00,79.9,67.1,29.72,West,267,1.0,6.0,65,0.00,,,0.01,meteohub,2013-07-24 20:04:00,
2013-07-24 16:09:00,80.1,66.4,29.72,SSW,205,1.0,6.0,63,0.00,,,0.01,meteohub,2013-07-24 20:09:00,
2013-07-24 16:14:00,80.1,67.3,29.72,ESE,115,1.0,4.0,65,0.00,,,0.01,meteohub,2013-07-24 20:14:00,
2013-07-24 16:19:00,79.5,67.6,29.71,SW,229,1.0,4.0,67,0.00,,,0.01,meteohub,2013-07-24 20:19:00,
2013-07-24 16:24:00,78.8,66.0,29.71,West,271,0.0,3.0,65,0.00,,,0.01,meteohub,2013-07-24 20:24:00,
2013-07-24 16:29:00,78.8,66.6,29.72,WSW,253,2.0,5.0,66,0.00,,,0.01,meteohub,2013-07-24 20:29:00,
2013-07-24 16:35:00,78.8,67.3,29.72,West,260,0.0,5.0,68,0.00,,,0.01,meteohub,2013-07-24 20:35:00,
2013-07-24 16:40:00,78.6,66.4,29.72,West,271,0.0,5.0,66,0.00,,,0.01,meteohub,2013-07-24 20:40:00,
2013-07-24 16:45:00,79.0,67.5,29.72,SSW,193,0.0,4.0,68,0.00,,,0.01,meteohub,2013-07-24 20:45:00,
2013-07-24 16:50:00,79.5,66.7,29.72,WNW,301,1.0,3.0,65,0.00,,,0.01,meteohub,2013-07-24 20:50:00,
2013-07-24 16:55:00,80.2,66.9,29.72,West,278,0.0,3.0,64,0.00,,,0.01,meteohub,2013-07-24 20:55:00,
2013-07-24 17:00:00,80.6,65.8,29.72,West,262,1.0,3.0,61,0.00,,,0.01,meteohub,2013-07-24 21:00:00,
2013-07-24 17:06:00,80.4,65.7,29.72,NE,40,1.0,4.0,61,0.00,,,0.01,meteohub,2013-07-24 21:06:00,
2013-07-24 17:11:00,81.1,67.8,29.72,WSW,238,1.0,4.0,64,0.00,,,0.01,meteohub,2013-07-24 21:11:00,
2013-07-24 17:17:00,81.5,67.3,29.72,South,186,1.0,4.0,62,0.00,,,0.01,meteohub,2013-07-24 21:17:00,
2013-07-24 17:22:00,81.7,65.5,29.72,WSW,256,1.0,4.0,58,0.00,,,0.01,meteohub,2013-07-24 21:22:00,
2013-07-24 17:27:00,81.5,65.8,29.72,East,84,1.0,4.0,59,0.00,,,0.01,meteohub,2013-07-24 21:27:00,
2013-07-24 17:32:00,80.4,65.7,29.72,NW,312,0.0,3.0,61,0.00,,,0.01,meteohub,2013-07-24 21:32:00,
2013-07-24 17:37:00,79.9,66.2,29.72,ESE,115,0.0,3.0,63,0.00,,,0.01,meteohub,2013-07-24 21:37:00,
2013-07-24 17:42:00,79.5,67.6,29.72,West,266,0.0,3.0,67,0.00,,,0.01,meteohub,2013-07-24 21:42:00,
2013-07-24 17:47:00,79.5,66.7,29.72,ENE,77,0.0,2.0,65,0.00,,,0.01,meteohub,2013-07-24 21:47:00,
2013-07-24 17:52:00,79.7,65.1,29.72,East,79,1.0,3.0,61,0.00,,,0.01,meteohub,2013-07-24 21:52:00,
2013-07-24 17:57:00,79.5,65.8,29.72,SSW,211,2.0,4.0,63,0.00,,,0.01,meteohub,2013-07-24 21:57:00,
2013-07-24 18:02:00,79.5,66.2,29.72,ESE,117,2.0,4.0,64,0.00,,,0.01,meteohub,2013-07-24 22:02:00,
2013-07-24 18:07:00,79.5,65.3,29.73,ESE,110,2.0,4.0,62,0.00,,,0.01,meteohub,2013-07-24 22:07:00,
2013-07-24 18:12:00,79.2,64.0,29.72,SSE,148,2.0,3.0,60,0.00,,,0.01,meteohub,2013-07-24 22:12:00,
2013-07-24 18:17:00,78.6,64.9,29.73,East,80,1.0,4.0,63,0.00,,,0.01,meteohub,2013-07-24 22:17:00,
2013-07-24 18:22:00,78.4,64.4,29.73,NNE,30,3.0,5.0,62,0.00,,,0.01,meteohub,2013-07-24 22:22:00,
2013-07-24 18:27:00,77.9,63.0,29.73,East,85,1.0,5.0,60,0.00,,,0.01,meteohub,2013-07-24 22:27:00,
2013-07-24 18:33:00,77.5,63.9,29.73,SE,141,0.0,7.0,63,0.00,,,0.01,meteohub,2013-07-24 22:33:00,
2013-07-24 18:38:00,77.4,63.9,29.73,ENE,66,2.0,7.0,63,0.00,,,0.01,meteohub,2013-07-24 22:38:00,
2013-07-24 18:43:00,76.8,62.8,29.74,SE,138,0.0,3.0,62,0.00,,,0.01,meteohub,2013-07-24 22:43:00,
2013-07-24 18:48:00,76.5,62.4,29.74,SSE,152,0.0,4.0,62,0.00,,,0.01,meteohub,2013-07-24 22:48:00,
2013-07-24 18:53:00,75.9,61.5,29.74,East,101,1.0,5.0,61,0.00,,,0.01,meteohub,2013-07-24 22:53:00,
2013-07-24 18:58:00,75.7,61.9,29.74,ENE,66,1.0,5.0,62,0.00,,,0.01,meteohub,2013-07-24 22:58:00,
2013-07-24 19:04:00,75.2,61.3,29.75,NE,56,2.0,5.0,62,0.00,,,0.01,meteohub,2013-07-24 23:04:00,
2013-07-24 19:09:00,74.7,61.2,29.75,ENE,66,0.0,5.0,63,0.00,,,0.01,meteohub,2013-07-24 23:09:00,
2013-07-24 19:14:00,74.5,61.0,29.75,ENE,64,0.0,5.0,63,0.00,,,0.01,meteohub,2013-07-24 23:14:00,
2013-07-24 19:19:00,73.9,60.6,29.76,ENE,59,3.0,5.0,63,0.00,,,0.01,meteohub,2013-07-24 23:19:00,
2013-07-24 19:24:00,73.9,61.0,29.76,ENE,65,2.0,4.0,64,0.00,,,0.01,meteohub,2013-07-24 23:24:00,
2013-07-24 19:30:00,73.8,60.4,29.76,ESE,103,0.0,4.0,63,0.00,,,0.01,meteohub,2013-07-24 23:30:00,
2013-07-24 19:35:00,73.4,60.4,29.76,NE,43,1.0,5.0,64,0.00,,,0.01,meteohub,2013-07-24 23:35:00,
2013-07-24 19:40:00,72.9,59.9,29.76,East,86,1.0,7.0,64,0.00,,,0.01,meteohub,2013-07-24 23:40:00,
2013-07-24 19:45:00,72.3,59.9,29.77,SE,124,1.0,7.0,65,0.00,,,0.01,meteohub,2013-07-24 23:45:00,
2013-07-24 19:50:00,71.8,59.7,29.77,ENE,72,1.0,4.0,66,0.00,,,0.01,meteohub,2013-07-24 23:50:00,
2013-07-24 19:55:00,71.4,59.9,29.78,East,98,1.0,4.0,67,0.00,,,0.01,meteohub,2013-07-24 23:55:00,
2013-07-24 20:01:00,70.9,59.7,29.78,East,96,0.0,4.0,68,0.00,,,0.01,meteohub,2013-07-25 00:01:00,
2013-07-24 20:06:00,70.3,59.7,29.78,NE,53,0.0,2.0,69,0.00,,,0.00,meteohub,2013-07-25 00:06:00,
2013-07-24 20:11:00,70.0,59.4,29.78,ENE,78,1.0,2.0,69,0.00,,,0.00,meteohub,2013-07-25 00:11:00,
2013-07-24 20:16:00,69.6,58.6,29.79,ENE,76,1.0,4.0,68,0.00,,,0.00,meteohub,2013-07-25 00:16:00,
2013-07-24 20:22:00,69.4,58.5,29.79,SE,125,0.0,4.0,68,0.00,,,0.00,meteohub,2013-07-25 00:22:00,
2013-07-24 20:27:00,69.1,58.5,29.79,ESE,102,0.0,4.0,69,0.00,,,0.00,meteohub,2013-07-25 00:27:00,
2013-07-24 20:32:00,68.7,58.1,29.80,ESE,105,1.0,4.0,69,0.00,,,0.00,meteohub,2013-07-25 00:32:00,
2013-07-24 20:37:00,68.4,57.7,29.80,ENE,65,0.0,3.0,69,0.00,,,0.00,meteohub,2013-07-25 00:37:00,
2013-07-24 20:42:00,67.8,58.1,29.80,ENE,67,0.0,5.0,71,0.00,,,0.00,meteohub,2013-07-25 00:42:00,
2013-07-24 20:47:00,67.5,58.1,29.81,SE,137,0.0,5.0,72,0.00,,,0.00,meteohub,2013-07-25 00:47:00,
2013-07-24 20:52:00,66.7,57.7,29.81,SE,136,1.0,2.0,73,0.00,,,0.00,meteohub,2013-07-25 00:52:00,
2013-07-24 20:57:00,66.2,57.7,29.81,SE,127,0.0,2.0,74,0.00,,,0.00,meteohub,2013-07-25 00:57:00,
2013-07-24 21:03:00,65.7,57.6,29.81,SE,127,1.0,2.0,75,0.00,,,0.00,meteohub,2013-07-25 01:03:00,
2013-07-24 21:08:00,65.8,57.4,29.82,NE,56,0.0,1.0,74,0.00,,,0.00,meteohub,2013-07-25 01:08:00,
2013-07-24 21:13:00,65.8,57.7,29.82,ESE,103,0.0,1.0,75,0.00,,,0.00,meteohub,2013-07-25 01:13:00,
2013-07-24 21:18:00,65.7,57.6,29.82,ESE,117,0.0,1.0,75,0.00,,,0.00,meteohub,2013-07-25 01:18:00,
2013-07-24 21:23:00,65.5,57.7,29.83,ESE,117,0.0,1.0,76,0.00,,,0.00,meteohub,2013-07-25 01:23:00,
2013-07-24 21:28:00,65.1,57.0,29.83,SE,124,0.0,1.0,75,0.00,,,0.00,meteohub,2013-07-25 01:28:00,
2013-07-24 21:34:00,64.9,57.2,29.83,SE,126,0.0,1.0,76,0.00,,,0.00,meteohub,2013-07-25 01:34:00,
2013-07-24 21:39:00,64.8,57.0,29.83,East,101,0.0,1.0,76,0.00,,,0.00,meteohub,2013-07-25 01:39:00,
2013-07-24 21:44:00,64.4,57.0,29.83,SE,142,0.0,1.0,77,0.00,,,0.00,meteohub,2013-07-25 01:44:00,
2013-07-24 21:49:00,64.0,57.0,29.84,ENE,61,1.0,1.0,78,0.00,,,0.00,meteohub,2013-07-25 01:49:00,
2013-07-24 21:54:00,63.7,57.0,29.84,ENE,75,1.0,1.0,79,0.00,,,0.00,meteohub,2013-07-25 01:54:00,
2013-07-24 21:59:00,63.3,57.0,29.84,ENE,75,0.0,1.0,80,0.00,,,0.00,meteohub,2013-07-25 01:59:00,
2013-07-24 22:05:00,62.8,56.8,29.85,ENE,73,0.0,1.0,81,0.00,,,0.00,meteohub,2013-07-25 02:05:00,
2013-07-24 22:10:00,62.4,56.8,29.85,ENE,73,0.0,1.0,82,0.00,,,0.00,meteohub,2013-07-25 02:10:00,
2013-07-24 22:15:00,62.1,56.5,29.85,ENE,74,0.0,1.0,82,0.00,,,0.00,meteohub,2013-07-25 02:15:00,
2013-07-24 22:20:00,61.5,55.9,29.85,ENE,73,0.0,1.0,82,0.00,,,0.00,meteohub,2013-07-25 02:20:00,
2013-07-24 22:25:00,61.2,55.9,29.86,ENE,73,0.0,0.0,83,0.00,,,0.00,meteohub,2013-07-25 02:25:00,
2013-07-24 22:30:00,61.0,56.5,29.86,ENE,73,0.0,0.0,85,0.00,,,0.00,meteohub,2013-07-25 02:30:00,
2013-07-24 22:36:00,60.6,56.5,29.86,ENE,73,0.0,0.0,86,0.00,,,0.00,meteohub,2013-07-25 02:36:00,
2013-07-24 22:41:00,60.6,56.5,29.86,SSE,153,0.0,1.0,86,0.00,,,0.00,meteohub,2013-07-25 02:41:00,
2013-07-24 22:46:00,60.8,56.7,29.86,SSE,153,0.0,1.0,86,0.00,,,0.00,meteohub,2013-07-25 02:46:00,
2013-07-24 22:51:00,61.0,56.5,29.86,SE,143,0.0,1.0,85,0.00,,,0.00,meteohub,2013-07-25 02:51:00,
2013-07-24 22:56:00,61.2,56.3,29.86,East,101,0.0,0.0,84,0.00,,,0.00,meteohub,2013-07-25 02:56:00,
2013-07-24 23:02:00,61.7,55.8,29.86,ESE,115,0.0,3.0,81,0.00,,,0.00,meteohub,2013-07-25 03:02:00,
2013-07-24 23:07:00,62.1,55.8,29.86,ESE,121,0.0,3.0,80,0.00,,,0.00,meteohub,2013-07-25 03:07:00,
2013-07-24 23:12:00,62.4,55.8,29.86,ESE,121,0.0,0.0,79,0.00,,,0.00,meteohub,2013-07-25 03:12:00,
2013-07-24 23:17:00,62.4,55.8,29.86,East,91,0.0,0.0,79,0.00,,,0.00,meteohub,2013-07-25 03:17:00,
2013-07-24 23:22:00,62.2,55.2,29.86,SE,138,0.0,0.0,78,0.00,,,0.00,meteohub,2013-07-25 03:22:00,
2013-07-24 23:27:00,62.2,55.2,29.86,NE,49,2.0,3.0,78,0.00,,,0.00,meteohub,2013-07-25 03:27:00,
2013-07-24 23:32:00,62.2,54.9,29.87,East,94,1.0,3.0,77,0.00,,,0.00,meteohub,2013-07-25 03:32:00,
2013-07-24 23:37:00,62.2,54.5,29.87,ESE,114,0.0,3.0,76,0.00,,,0.00,meteohub,2013-07-25 03:37:00,
2013-07-24 23:42:00,62.1,54.7,29.87,ESE,110,0.0,3.0,77,0.00,,,0.00,meteohub,2013-07-25 03:42:00,
2013-07-24 23:47:00,62.1,54.7,29.86,ENE,57,0.0,2.0,77,0.00,,,0.00,meteohub,2013-07-25 03:47:00,
2013-07-24 23:52:00,61.9,54.7,29.87,NE,51,2.0,3.0,77,0.00,,,0.00,meteohub,2013-07-25 03:52:00,
2013-07-24 23:57:00,61.9,54.3,29.87,SE,145,0.0,3.0,76,0.00,,,0.00,meteohub,2013-07-25 03:57:00,